createdAt,value
2022-11-05T00:02:30.141Z,19.85
2022-11-05T00:07:08.248Z,21.38
2022-11-05T00:11:41.581Z,19.08
2022-11-05T00:16:08.882Z,20.27
2022-11-05T00:20:27.338Z,19.88
2022-11-05T00:24:49.652Z,23.73
2022-11-05T00:28:54.492Z,21.75
2022-11-05T00:33:08.534Z,24.20
2022-11-05T00:37:19.843Z,27.35
2022-11-05T00:41:37.539Z,25.60
2022-11-05T00:46:35.983Z,24.50
2022-11-05T00:50:53.097Z,24.30
2022-11-05T00:54:59.997Z,24.05
2022-11-05T00:59:11.595Z,20.95
2022-11-05T01:03:32.822Z,20.48
2022-11-05T01:07:47.489Z,21.63
2022-11-05T01:11:55.411Z,18.90
2022-11-05T01:16:25.127Z,19.10
2022-11-05T01:20:32.817Z,18.77
2022-11-05T01:24:44.639Z,19.45
2022-11-05T01:29:04.839Z,18.67
2022-11-05T01:33:10.078Z,20.58
2022-11-05T01:37:13.600Z,19.33
2022-11-05T01:41:18.286Z,19.15
2022-11-05T01:49:39.731Z,17.98
2022-11-05T01:53:51.657Z,19.48
2022-11-05T02:02:43.100Z,16.77
2022-11-05T02:07:15.406Z,16.38
2022-11-05T02:11:29.868Z,16.90
2022-11-05T02:16:04.712Z,17.92
2022-11-05T02:20:34.435Z,19.17
2022-11-05T02:25:22.323Z,18.40
2022-11-05T02:30:14.677Z,18.52
2022-11-05T02:34:42.449Z,18.92
2022-11-05T02:39:03.439Z,17.70
2022-11-05T02:43:19.782Z,18.15
2022-11-05T02:47:49.812Z,19.38
2022-11-05T02:52:05.466Z,19.02
2022-11-05T02:56:24.858Z,20.40
2022-11-05T03:01:01.063Z,22.65
2022-11-05T03:05:09.588Z,20.25
2022-11-05T03:09:51.195Z,20.60
2022-11-05T03:14:07.909Z,21.98
2022-11-05T03:18:27.460Z,20.63
2022-11-05T03:22:53.037Z,18.48
2022-11-05T03:28:04.430Z,18.92
2022-11-05T03:32:55.597Z,21.15
2022-11-05T03:37:29.059Z,20.80
2022-11-05T03:41:56.222Z,19.40
2022-11-05T03:46:18.675Z,18.27
2022-11-05T03:50:41.845Z,19.23
2022-11-05T03:55:00.819Z,18.95
2022-11-05T03:59:19.685Z,20.17
2022-11-05T04:03:28.517Z,17.98
2022-11-05T04:07:57.941Z,21.60
2022-11-05T04:12:40.007Z,20.08
2022-11-05T04:17:15.363Z,22.00
2022-11-05T04:21:54.444Z,23.77
2022-11-05T04:26:16.284Z,25.58
2022-11-05T04:30:36.116Z,25.25
2022-11-05T04:35:01.704Z,24.27
2022-11-05T04:39:40.033Z,23.83
2022-11-05T04:44:02.220Z,25.13
2022-11-05T04:48:27.729Z,22.58
2022-11-05T04:52:54.367Z,23.27
2022-11-05T04:57:11.268Z,22.08
2022-11-05T05:01:32.141Z,21.55
2022-11-05T05:06:02.410Z,22.42
2022-11-05T05:10:25.931Z,21.55
2022-11-05T05:14:38.833Z,25.98
2022-11-05T05:19:00.662Z,22.73
2022-11-05T05:23:29.392Z,24.50
2022-11-05T05:28:02.681Z,19.85
2022-11-05T05:32:56.498Z,18.33
2022-11-05T05:37:08.725Z,24.80
2022-11-05T05:41:48.476Z,23.77
2022-11-05T05:51:55.698Z,25.63
2022-11-05T05:57:14.954Z,27.00
2022-11-05T06:02:16.553Z,27.10
2022-11-05T06:07:02.640Z,26.88
2022-11-05T06:11:37.724Z,31.42
2022-11-05T06:15:58.238Z,33.40
2022-11-05T06:20:13.651Z,27.58
2022-11-05T06:24:26.100Z,29.42
2022-11-05T06:28:38.296Z,28.25
2022-11-05T06:33:07.756Z,20.88
2022-11-05T06:37:17.282Z,23.35
2022-11-05T06:41:27.292Z,23.65
2022-11-05T06:45:55.187Z,21.98
2022-11-05T06:50:09.935Z,24.60
2022-11-05T06:54:27.160Z,22.35
2022-11-05T06:58:50.940Z,22.95
2022-11-05T07:09:18.728Z,24.08
2022-11-05T07:13:30.833Z,23.38
2022-11-05T07:17:35.470Z,23.20
2022-11-05T07:21:51.467Z,23.20
2022-11-05T07:25:51.846Z,22.83
2022-11-05T07:29:56.956Z,22.35
2022-11-05T07:34:06.402Z,21.60
2022-11-05T07:38:13.047Z,22.00
2022-11-05T07:42:25.571Z,22.30
2022-11-05T07:46:33.983Z,20.33
2022-11-05T07:55:24.104Z,22.98
2022-11-05T08:03:44.449Z,23.25
2022-11-05T08:08:35.417Z,22.92
2022-11-05T08:13:22.776Z,21.02
2022-11-05T08:23:30.911Z,21.83
2022-11-05T08:27:49.742Z,20.88
2022-11-05T08:32:53.595Z,20.73
2022-11-05T08:37:23.944Z,19.98
2022-11-05T08:41:45.364Z,19.58
2022-11-05T08:46:02.808Z,19.73
2022-11-05T08:51:16.972Z,19.35
2022-11-05T08:55:44.474Z,21.77
2022-11-05T09:05:39.363Z,19.55
2022-11-05T09:10:12.857Z,22.48
2022-11-05T09:14:53.563Z,23.85
2022-11-05T09:19:31.386Z,21.85
2022-11-05T09:28:37.696Z,21.58
2022-11-05T09:33:10.225Z,19.85
2022-11-05T09:38:01.219Z,20.08
2022-11-05T09:42:32.828Z,22.27
2022-11-05T09:47:12.840Z,20.42
2022-11-05T09:51:37.327Z,21.45
2022-11-05T09:55:50.463Z,20.95
2022-11-05T10:00:03.309Z,23.15
2022-11-05T10:04:33.433Z,22.30
2022-11-05T10:09:16.054Z,21.10
2022-11-05T10:13:28.062Z,19.75
2022-11-05T10:17:55.659Z,22.40
2022-11-05T10:22:16.661Z,23.90
2022-11-05T10:26:33.641Z,21.50
2022-11-05T10:30:46.788Z,22.83
2022-11-05T10:34:58.685Z,23.65
2022-11-05T10:39:18.786Z,20.15
2022-11-05T10:43:33.189Z,22.60
2022-11-05T10:48:01.168Z,23.60
2022-11-05T10:52:28.994Z,21.08
2022-11-05T10:56:38.396Z,22.23
2022-11-05T11:00:49.221Z,21.50
2022-11-05T11:04:58.927Z,22.75
2022-11-05T11:18:26.053Z,23.13
2022-11-05T11:22:42.265Z,24.20
2022-11-05T11:26:50.350Z,22.00
2022-11-05T11:30:58.702Z,24.10
2022-11-05T11:35:04.156Z,22.58
2022-11-05T11:39:36.544Z,20.52
2022-11-05T11:44:10.157Z,23.98
2022-11-05T11:48:58.511Z,22.13
2022-11-05T11:53:50.123Z,22.25
2022-11-05T11:57:58.975Z,21.58
2022-11-05T12:02:58.851Z,24.08
2022-11-05T12:07:46.969Z,23.88
2022-11-05T12:12:02.641Z,22.13
2022-11-05T12:21:09.765Z,22.27
2022-11-05T12:25:30.755Z,20.83
2022-11-05T12:30:09.857Z,21.90
2022-11-05T12:34:47.768Z,21.67
2022-11-05T12:39:46.477Z,21.52
2022-11-05T12:44:28.318Z,19.80
2022-11-05T12:49:16.124Z,20.52
2022-11-05T12:53:54.142Z,22.13
2022-11-05T12:58:18.885Z,21.77
2022-11-05T13:02:29.443Z,19.30
2022-11-05T13:06:53.410Z,21.63
2022-11-05T13:10:58.088Z,21.73
2022-11-05T13:15:05.353Z,20.50
2022-11-05T13:19:18.898Z,21.88
2022-11-05T13:23:36.653Z,20.73
2022-11-05T13:27:55.148Z,24.25
2022-11-05T13:32:08.115Z,21.42
2022-11-05T13:36:48.194Z,21.40
2022-11-05T13:41:42.185Z,21.92
2022-11-05T13:46:49.590Z,22.15
2022-11-05T13:52:24.029Z,22.25
2022-11-05T13:57:25.700Z,22.65
2022-11-05T14:02:16.691Z,21.27
2022-11-05T14:25:07.555Z,21.27
2022-11-05T14:41:55.905Z,21.10
2022-11-05T15:34:31.030Z,20.92
2022-11-05T15:39:08.518Z,20.08
2022-11-05T15:43:35.539Z,21.75
2022-11-05T15:48:35.206Z,17.15
2022-11-05T15:53:44.070Z,20.55
2022-11-05T15:58:05.638Z,19.58
2022-11-05T16:02:36.107Z,21.77
2022-11-05T16:07:26.200Z,19.67
2022-11-05T16:11:52.327Z,20.08
2022-11-05T16:16:13.752Z,20.48
2022-11-05T16:20:42.956Z,21.38
2022-11-05T16:25:04.984Z,20.70
2022-11-05T16:29:23.178Z,20.67
2022-11-05T16:33:53.206Z,21.92
2022-11-05T16:38:11.309Z,22.73
2022-11-05T16:42:44.831Z,21.90
2022-11-05T16:47:06.698Z,23.75
2022-11-05T16:51:17.065Z,23.83
2022-11-05T16:55:50.116Z,21.27
2022-11-05T17:00:19.259Z,23.05
2022-11-05T17:04:39.290Z,25.83
2022-11-05T17:08:40.605Z,24.02
2022-11-05T17:12:46.817Z,22.20
2022-11-05T17:17:00.832Z,27.10
2022-11-05T17:21:23.000Z,24.45
2022-11-05T17:26:01.447Z,26.55
2022-11-05T17:30:31.203Z,26.70
2022-11-05T17:34:41.092Z,26.65
2022-11-05T17:39:03.158Z,23.67
2022-11-05T17:43:52.797Z,27.13
2022-11-05T17:48:33.555Z,25.75
2022-11-05T17:52:53.405Z,27.38
2022-11-05T17:57:20.538Z,28.13
2022-11-05T18:01:31.300Z,26.30
2022-11-05T18:05:44.137Z,28.58
2022-11-05T18:10:02.854Z,29.77
2022-11-05T18:14:08.026Z,28.67
2022-11-05T18:18:35.332Z,25.88
2022-11-05T18:22:46.481Z,27.98
2022-11-05T18:26:59.757Z,29.02
2022-11-05T18:31:21.613Z,30.05
2022-11-05T18:39:34.146Z,29.92
2022-11-05T18:43:41.381Z,31.20
2022-11-05T18:48:10.660Z,73.97
2022-11-05T18:52:38.151Z,35.72
2022-11-05T18:56:59.933Z,38.60
2022-11-05T19:01:29.022Z,52.58
2022-11-05T19:05:56.071Z,46.70
2022-11-05T19:10:13.195Z,32.80
2022-11-05T19:14:38.080Z,33.53
2022-11-05T19:18:55.027Z,36.08
2022-11-05T19:23:10.824Z,32.05
2022-11-05T19:27:32.126Z,33.22
2022-11-05T19:32:21.053Z,32.83
2022-11-05T19:36:46.350Z,35.60
2022-11-05T19:41:30.197Z,41.55
2022-11-05T19:45:55.721Z,41.65
2022-11-05T19:55:06.757Z,39.38
2022-11-05T19:59:54.658Z,37.05
2022-11-05T20:04:24.211Z,40.90
2022-11-05T20:08:47.853Z,38.30
2022-11-05T20:13:18.588Z,40.85
2022-11-05T20:17:45.600Z,41.85
2022-11-05T20:21:50.997Z,48.85
2022-11-05T20:25:56.815Z,50.08
2022-11-05T20:30:02.372Z,41.53
2022-11-05T20:34:09.834Z,46.17
2022-11-05T20:38:13.192Z,44.67
2022-11-05T20:42:18.421Z,40.78
2022-11-05T20:46:47.849Z,45.10
2022-11-05T20:50:56.939Z,41.05
2022-11-05T20:54:58.439Z,43.33
2022-11-05T20:59:23.666Z,43.65
2022-11-05T21:04:02.500Z,43.60
2022-11-05T21:08:37.238Z,45.35
2022-11-05T21:13:02.560Z,42.67
2022-11-05T21:17:18.050Z,45.13
2022-11-05T21:21:26.790Z,40.28
2022-11-05T21:25:36.341Z,42.47
2022-11-05T21:29:41.177Z,34.92
2022-11-05T21:34:00.364Z,39.28
2022-11-05T21:38:29.472Z,39.47
2022-11-05T21:42:45.675Z,40.42
2022-11-05T21:46:54.347Z,41.20
2022-11-05T21:51:33.083Z,40.55
2022-11-05T21:56:04.763Z,38.85
2022-11-05T22:00:32.168Z,39.10
2022-11-05T22:04:54.006Z,42.10
2022-11-05T22:09:20.989Z,36.53
2022-11-05T22:13:32.626Z,37.33
2022-11-05T22:18:17.463Z,36.60
2022-11-05T22:22:36.683Z,37.45
2022-11-05T22:27:07.582Z,34.47
2022-11-05T22:31:41.201Z,33.78
2022-11-05T22:36:03.092Z,37.88
2022-11-05T22:40:12.996Z,35.25
2022-11-05T22:48:18.679Z,35.13
2022-11-05T22:52:22.596Z,36.58
2022-11-05T22:56:29.102Z,31.95
2022-11-05T23:00:39.241Z,35.53
2022-11-05T23:05:03.029Z,36.85
2022-11-05T23:09:23.527Z,37.28
2022-11-05T23:13:28.988Z,35.22
2022-11-05T23:17:51.850Z,36.75
2022-11-05T23:22:11.428Z,30.42
2022-11-05T23:26:31.730Z,32.40
2022-11-05T23:31:05.653Z,31.33
2022-11-05T23:35:30.053Z,34.95
2022-11-05T23:39:39.644Z,34.60
2022-11-05T23:43:58.677Z,36.58
2022-11-05T23:48:19.902Z,33.17
2022-11-05T23:52:35.807Z,35.17
2022-11-05T23:56:43.770Z,35.03
